sensor_id;sensor_type;location;lat;lon;timestamp;P1;durP1;ratioP1;P2;durP2;ratioP2
76131;SDS011;64877;50.994;13.650;2023-04-29T00:01:25;15.30;;;8.88;;
76131;SDS011;64877;50.994;13.650;2023-04-29T00:03:50;14.75;;;8.95;;
76131;SDS011;64877;50.994;13.650;2023-04-29T00:06:16;14.07;;;9.48;;
76131;SDS011;64877;50.994;13.650;2023-04-29T00:08:41;13.90;;;8.07;;
76131;SDS011;64877;50.994;13.650;2023-04-29T00:11:07;14.25;;;8.63;;
76131;SDS011;64877;50.994;13.650;2023-04-29T00:13:32;13.10;;;8.68;;
76131;SDS011;64877;50.994;13.650;2023-04-29T00:15:58;12.13;;;8.27;;
76131;SDS011;64877;50.994;13.650;2023-04-29T00:18:23;15.13;;;10.60;;
76131;SDS011;64877;50.994;13.650;2023-04-29T00:20:48;14.00;;;8.85;;
76131;SDS011;64877;50.994;13.650;2023-04-29T00:23:14;12.93;;;7.90;;
76131;SDS011;64877;50.994;13.650;2023-04-29T00:25:39;12.70;;;9.10;;
76131;SDS011;64877;50.994;13.650;2023-04-29T00:28:05;12.30;;;9.20;;
76131;SDS011;64877;50.994;13.650;2023-04-29T00:30:30;12.85;;;9.38;;
76131;SDS011;64877;50.994;13.650;2023-04-29T00:32:59;15.23;;;10.50;;
76131;SDS011;64877;50.994;13.650;2023-04-29T00:35:24;17.48;;;10.02;;
76131;SDS011;64877;50.994;13.650;2023-04-29T00:37:50;13.98;;;9.63;;
76131;SDS011;64877;50.994;13.650;2023-04-29T00:40:15;14.80;;;9.52;;
76131;SDS011;64877;50.994;13.650;2023-04-29T00:42:41;15.88;;;10.10;;
76131;SDS011;64877;50.994;13.650;2023-04-29T00:45:07;13.20;;;8.75;;
76131;SDS011;64877;50.994;13.650;2023-04-29T00:47:35;13.55;;;9.30;;
76131;SDS011;64877;50.994;13.650;2023-04-29T00:50:01;15.95;;;9.60;;
76131;SDS011;64877;50.994;13.650;2023-04-29T00:52:28;14.40;;;9.85;;
76131;SDS011;64877;50.994;13.650;2023-04-29T00:54:55;15.43;;;9.95;;
76131;SDS011;64877;50.994;13.650;2023-04-29T00:57:21;14.02;;;9.38;;
76131;SDS011;64877;50.994;13.650;2023-04-29T00:59:47;17.25;;;10.38;;
76131;SDS011;64877;50.994;13.650;2023-04-29T01:02:13;14.00;;;9.85;;
76131;SDS011;64877;50.994;13.650;2023-04-29T01:04:41;12.65;;;9.07;;
76131;SDS011;64877;50.994;13.650;2023-04-29T01:07:14;12.93;;;8.82;;
76131;SDS011;64877;50.994;13.650;2023-04-29T01:10:09;13.90;;;9.55;;
76131;SDS011;64877;50.994;13.650;2023-04-29T01:12:47;12.63;;;8.90;;
76131;SDS011;64877;50.994;13.650;2023-04-29T01:15:27;15.65;;;8.57;;
76131;SDS011;64877;50.994;13.650;2023-04-29T01:18:04;13.48;;;8.65;;
76131;SDS011;64877;50.994;13.650;2023-04-29T01:20:34;14.43;;;9.35;;
76131;SDS011;64877;50.994;13.650;2023-04-29T01:23:01;11.93;;;7.93;;
76131;SDS011;64877;50.994;13.650;2023-04-29T01:25:27;10.02;;;7.18;;
76131;SDS011;64877;50.994;13.650;2023-04-29T01:39:12;10.80;;;6.95;;
76131;SDS011;64877;50.994;13.650;2023-04-29T01:41:52;8.27;;;5.22;;
76131;SDS011;64877;50.994;13.650;2023-04-29T01:44:23;8.02;;;4.65;;
76131;SDS011;64877;50.994;13.650;2023-04-29T01:46:53;6.30;;;4.32;;
76131;SDS011;64877;50.994;13.650;2023-04-29T01:49:21;7.43;;;4.60;;
76131;SDS011;64877;50.994;13.650;2023-04-29T01:51:48;6.30;;;3.97;;
76131;SDS011;64877;50.994;13.650;2023-04-29T01:54:14;5.82;;;3.65;;
76131;SDS011;64877;50.994;13.650;2023-04-29T01:56:39;5.47;;;3.83;;
76131;SDS011;64877;50.994;13.650;2023-04-29T01:59:05;5.32;;;4.13;;
76131;SDS011;64877;50.994;13.650;2023-04-29T02:01:32;9.98;;;5.93;;
76131;SDS011;64877;50.994;13.650;2023-04-29T02:03:57;7.13;;;4.00;;
76131;SDS011;64877;50.994;13.650;2023-04-29T02:06:23;5.13;;;3.47;;
76131;SDS011;64877;50.994;13.650;2023-04-29T02:08:49;13.13;;;3.72;;
76131;SDS011;64877;50.994;13.650;2023-04-29T02:11:14;6.90;;;3.63;;
76131;SDS011;64877;50.994;13.650;2023-04-29T02:13:40;8.25;;;4.90;;
76131;SDS011;64877;50.994;13.650;2023-04-29T02:16:08;6.25;;;3.80;;
76131;SDS011;64877;50.994;13.650;2023-04-29T02:18:37;5.85;;;4.18;;
76131;SDS011;64877;50.994;13.650;2023-04-29T02:21:03;7.78;;;4.68;;
76131;SDS011;64877;50.994;13.650;2023-04-29T02:23:28;7.90;;;4.03;;
76131;SDS011;64877;50.994;13.650;2023-04-29T02:25:54;6.32;;;3.53;;
76131;SDS011;64877;50.994;13.650;2023-04-29T02:28:20;8.63;;;3.67;;
76131;SDS011;64877;50.994;13.650;2023-04-29T02:30:47;5.10;;;3.40;;
76131;SDS011;64877;50.994;13.650;2023-04-29T02:33:13;6.82;;;3.75;;
76131;SDS011;64877;50.994;13.650;2023-04-29T02:35:38;7.20;;;3.63;;
76131;SDS011;64877;50.994;13.650;2023-04-29T02:38:03;5.78;;;2.92;;
76131;SDS011;64877;50.994;13.650;2023-04-29T02:40:29;3.72;;;2.22;;
76131;SDS011;64877;50.994;13.650;2023-04-29T02:42:54;3.83;;;2.65;;
76131;SDS011;64877;50.994;13.650;2023-04-29T02:45:19;4.25;;;2.67;;
76131;SDS011;64877;50.994;13.650;2023-04-29T02:47:45;3.45;;;1.92;;
76131;SDS011;64877;50.994;13.650;2023-04-29T02:50:10;3.78;;;2.42;;
76131;SDS011;64877;50.994;13.650;2023-04-29T02:52:36;3.60;;;1.90;;
76131;SDS011;64877;50.994;13.650;2023-04-29T02:55:01;3.03;;;1.73;;
76131;SDS011;64877;50.994;13.650;2023-04-29T02:57:27;3.63;;;2.03;;
76131;SDS011;64877;50.994;13.650;2023-04-29T02:59:53;3.38;;;2.10;;
76131;SDS011;64877;50.994;13.650;2023-04-29T03:02:19;4.40;;;2.25;;
76131;SDS011;64877;50.994;13.650;2023-04-29T03:04:44;3.47;;;2.33;;
76131;SDS011;64877;50.994;13.650;2023-04-29T03:07:10;4.65;;;2.50;;
76131;SDS011;64877;50.994;13.650;2023-04-29T03:09:36;4.32;;;2.75;;
76131;SDS011;64877;50.994;13.650;2023-04-29T03:12:01;3.00;;;1.73;;
76131;SDS011;64877;50.994;13.650;2023-04-29T03:14:27;3.60;;;2.40;;
76131;SDS011;64877;50.994;13.650;2023-04-29T03:16:52;3.85;;;2.00;;
76131;SDS011;64877;50.994;13.650;2023-04-29T03:19:20;3.65;;;1.65;;
76131;SDS011;64877;50.994;13.650;2023-04-29T03:21:45;2.40;;;1.63;;
76131;SDS011;64877;50.994;13.650;2023-04-29T03:24:11;3.50;;;1.30;;
76131;SDS011;64877;50.994;13.650;2023-04-29T03:26:36;2.22;;;1.30;;
76131;SDS011;64877;50.994;13.650;2023-04-29T03:29:01;3.13;;;1.50;;
76131;SDS011;64877;50.994;13.650;2023-04-29T03:31:27;2.60;;;1.52;;
76131;SDS011;64877;50.994;13.650;2023-04-29T03:33:52;3.70;;;1.30;;
76131;SDS011;64877;50.994;13.650;2023-04-29T03:36:18;3.22;;;1.45;;
76131;SDS011;64877;50.994;13.650;2023-04-29T03:38:43;2.20;;;1.40;;
76131;SDS011;64877;50.994;13.650;2023-04-29T03:41:09;2.97;;;1.42;;
76131;SDS011;64877;50.994;13.650;2023-04-29T03:43:34;3.60;;;1.55;;
76131;SDS011;64877;50.994;13.650;2023-04-29T03:46:00;2.90;;;1.80;;
76131;SDS011;64877;50.994;13.650;2023-04-29T03:48:25;4.20;;;1.70;;
76131;SDS011;64877;50.994;13.650;2023-04-29T03:50:50;3.95;;;1.63;;
76131;SDS011;64877;50.994;13.650;2023-04-29T03:53:16;2.78;;;1.90;;
76131;SDS011;64877;50.994;13.650;2023-04-29T03:55:42;3.05;;;1.90;;
76131;SDS011;64877;50.994;13.650;2023-04-29T03:58:07;3.92;;;1.90;;
76131;SDS011;64877;50.994;13.650;2023-04-29T04:00:33;3.03;;;1.70;;
76131;SDS011;64877;50.994;13.650;2023-04-29T04:02:58;3.22;;;1.77;;
76131;SDS011;64877;50.994;13.650;2023-04-29T04:05:24;5.30;;;1.95;;
76131;SDS011;64877;50.994;13.650;2023-04-29T04:07:53;3.70;;;2.05;;
76131;SDS011;64877;50.994;13.650;2023-04-29T04:10:19;3.42;;;2.00;;
76131;SDS011;64877;50.994;13.650;2023-04-29T04:12:44;4.00;;;2.08;;
76131;SDS011;64877;50.994;13.650;2023-04-29T04:15:11;4.90;;;2.58;;
76131;SDS011;64877;50.994;13.650;2023-04-29T04:17:36;4.50;;;2.63;;
76131;SDS011;64877;50.994;13.650;2023-04-29T04:20:02;4.93;;;2.50;;
76131;SDS011;64877;50.994;13.650;2023-04-29T04:22:28;3.85;;;2.10;;
76131;SDS011;64877;50.994;13.650;2023-04-29T04:24:54;3.08;;;1.95;;
76131;SDS011;64877;50.994;13.650;2023-04-29T04:27:19;3.88;;;2.47;;
76131;SDS011;64877;50.994;13.650;2023-04-29T04:29:45;4.07;;;2.88;;
76131;SDS011;64877;50.994;13.650;2023-04-29T04:32:10;4.78;;;2.80;;
76131;SDS011;64877;50.994;13.650;2023-04-29T04:34:36;4.25;;;2.63;;
76131;SDS011;64877;50.994;13.650;2023-04-29T04:37:03;5.28;;;3.40;;
76131;SDS011;64877;50.994;13.650;2023-04-29T04:39:29;5.35;;;3.25;;
76131;SDS011;64877;50.994;13.650;2023-04-29T04:41:54;6.30;;;4.05;;
76131;SDS011;64877;50.994;13.650;2023-04-29T04:44:19;8.40;;;4.57;;
76131;SDS011;64877;50.994;13.650;2023-04-29T04:46:45;7.07;;;4.60;;
76131;SDS011;64877;50.994;13.650;2023-04-29T04:49:10;6.68;;;4.72;;
76131;SDS011;64877;50.994;13.650;2023-04-29T04:51:36;7.60;;;5.20;;
76131;SDS011;64877;50.994;13.650;2023-04-29T04:54:01;7.15;;;4.55;;
76131;SDS011;64877;50.994;13.650;2023-04-29T04:56:26;7.22;;;5.22;;
76131;SDS011;64877;50.994;13.650;2023-04-29T04:58:52;10.05;;;6.25;;
76131;SDS011;64877;50.994;13.650;2023-04-29T05:01:17;9.35;;;5.45;;
76131;SDS011;64877;50.994;13.650;2023-04-29T05:03:42;7.85;;;5.50;;
76131;SDS011;64877;50.994;13.650;2023-04-29T05:06:08;8.43;;;5.75;;
76131;SDS011;64877;50.994;13.650;2023-04-29T05:08:33;10.45;;;7.25;;
76131;SDS011;64877;50.994;13.650;2023-04-29T05:10:59;8.23;;;6.55;;
76131;SDS011;64877;50.994;13.650;2023-04-29T05:13:24;8.95;;;7.03;;
76131;SDS011;64877;50.994;13.650;2023-04-29T05:15:50;10.55;;;7.20;;
76131;SDS011;64877;50.994;13.650;2023-04-29T05:18:15;10.05;;;7.07;;
76131;SDS011;64877;50.994;13.650;2023-04-29T05:20:41;10.32;;;7.30;;
76131;SDS011;64877;50.994;13.650;2023-04-29T05:23:06;10.60;;;7.68;;
76131;SDS011;64877;50.994;13.650;2023-04-29T05:25:32;11.48;;;8.50;;
76131;SDS011;64877;50.994;13.650;2023-04-29T05:27:58;11.50;;;8.13;;
76131;SDS011;64877;50.994;13.650;2023-04-29T05:30:24;10.98;;;7.47;;
76131;SDS011;64877;50.994;13.650;2023-04-29T05:32:49;10.32;;;7.72;;
76131;SDS011;64877;50.994;13.650;2023-04-29T05:35:15;10.23;;;7.70;;
76131;SDS011;64877;50.994;13.650;2023-04-29T05:37:40;10.63;;;7.57;;
76131;SDS011;64877;50.994;13.650;2023-04-29T05:40:06;10.77;;;6.85;;
76131;SDS011;64877;50.994;13.650;2023-04-29T05:42:32;9.85;;;7.32;;
76131;SDS011;64877;50.994;13.650;2023-04-29T05:44:57;10.18;;;7.28;;
76131;SDS011;64877;50.994;13.650;2023-04-29T05:47:23;8.48;;;6.78;;
76131;SDS011;64877;50.994;13.650;2023-04-29T05:49:48;10.40;;;7.50;;
76131;SDS011;64877;50.994;13.650;2023-04-29T05:52:14;9.73;;;7.63;;
76131;SDS011;64877;50.994;13.650;2023-04-29T05:54:39;10.15;;;7.55;;
76131;SDS011;64877;50.994;13.650;2023-04-29T05:57:05;9.70;;;7.13;;
76131;SDS011;64877;50.994;13.650;2023-04-29T05:59:31;11.05;;;7.38;;
76131;SDS011;64877;50.994;13.650;2023-04-29T06:01:57;9.30;;;6.97;;
76131;SDS011;64877;50.994;13.650;2023-04-29T06:04:23;10.32;;;7.20;;
76131;SDS011;64877;50.994;13.650;2023-04-29T06:06:50;11.35;;;7.57;;
76131;SDS011;64877;50.994;13.650;2023-04-29T06:09:16;10.73;;;7.90;;
76131;SDS011;64877;50.994;13.650;2023-04-29T06:11:42;10.68;;;8.05;;
76131;SDS011;64877;50.994;13.650;2023-04-29T06:14:09;11.50;;;8.00;;
76131;SDS011;64877;50.994;13.650;2023-04-29T06:16:34;11.43;;;7.45;;
76131;SDS011;64877;50.994;13.650;2023-04-29T06:19:00;11.82;;;7.93;;
76131;SDS011;64877;50.994;13.650;2023-04-29T06:21:26;13.02;;;7.78;;
76131;SDS011;64877;50.994;13.650;2023-04-29T06:23:52;10.88;;;8.13;;
76131;SDS011;64877;50.994;13.650;2023-04-29T06:26:18;11.98;;;8.05;;
76131;SDS011;64877;50.994;13.650;2023-04-29T06:28:45;11.77;;;7.60;;
76131;SDS011;64877;50.994;13.650;2023-04-29T06:31:11;11.02;;;7.72;;
76131;SDS011;64877;50.994;13.650;2023-04-29T06:33:36;11.27;;;7.85;;
76131;SDS011;64877;50.994;13.650;2023-04-29T06:36:02;11.90;;;7.97;;
76131;SDS011;64877;50.994;13.650;2023-04-29T06:38:28;11.18;;;7.28;;
76131;SDS011;64877;50.994;13.650;2023-04-29T06:40:54;11.23;;;8.30;;
76131;SDS011;64877;50.994;13.650;2023-04-29T06:43:19;11.70;;;8.02;;
76131;SDS011;64877;50.994;13.650;2023-04-29T06:45:45;11.50;;;8.25;;
76131;SDS011;64877;50.994;13.650;2023-04-29T06:48:11;12.32;;;8.13;;
76131;SDS011;64877;50.994;13.650;2023-04-29T06:50:36;13.35;;;8.98;;
76131;SDS011;64877;50.994;13.650;2023-04-29T06:53:02;11.52;;;7.85;;
76131;SDS011;64877;50.994;13.650;2023-04-29T06:55:27;11.13;;;8.10;;
76131;SDS011;64877;50.994;13.650;2023-04-29T06:57:52;12.93;;;8.23;;
76131;SDS011;64877;50.994;13.650;2023-04-29T07:00:18;10.75;;;8.10;;
76131;SDS011;64877;50.994;13.650;2023-04-29T07:02:45;13.55;;;8.20;;
76131;SDS011;64877;50.994;13.650;2023-04-29T07:05:10;12.52;;;8.52;;
76131;SDS011;64877;50.994;13.650;2023-04-29T07:07:36;11.38;;;7.97;;
76131;SDS011;64877;50.994;13.650;2023-04-29T07:10:02;15.45;;;9.82;;
76131;SDS011;64877;50.994;13.650;2023-04-29T07:12:27;13.63;;;9.32;;
76131;SDS011;64877;50.994;13.650;2023-04-29T07:14:53;10.98;;;8.13;;
76131;SDS011;64877;50.994;13.650;2023-04-29T07:17:18;11.55;;;8.45;;
76131;SDS011;64877;50.994;13.650;2023-04-29T07:19:44;12.10;;;8.05;;
76131;SDS011;64877;50.994;13.650;2023-04-29T07:22:10;13.65;;;7.93;;
76131;SDS011;64877;50.994;13.650;2023-04-29T07:24:36;14.35;;;8.30;;
76131;SDS011;64877;50.994;13.650;2023-04-29T07:27:01;12.10;;;7.55;;
76131;SDS011;64877;50.994;13.650;2023-04-29T07:29:27;10.77;;;7.00;;
76131;SDS011;64877;50.994;13.650;2023-04-29T07:31:52;9.70;;;7.32;;
76131;SDS011;64877;50.994;13.650;2023-04-29T07:34:18;11.73;;;7.28;;
76131;SDS011;64877;50.994;13.650;2023-04-29T07:36:43;9.98;;;6.32;;
76131;SDS011;64877;50.994;13.650;2023-04-29T07:39:08;7.60;;;4.93;;
76131;SDS011;64877;50.994;13.650;2023-04-29T07:41:36;7.05;;;4.85;;
76131;SDS011;64877;50.994;13.650;2023-04-29T07:44:01;7.70;;;5.45;;
76131;SDS011;64877;50.994;13.650;2023-04-29T07:46:27;6.28;;;4.50;;
76131;SDS011;64877;50.994;13.650;2023-04-29T07:48:52;5.50;;;4.07;;
76131;SDS011;64877;50.994;13.650;2023-04-29T07:51:18;5.35;;;3.75;;
76131;SDS011;64877;50.994;13.650;2023-04-29T07:53:43;6.85;;;4.15;;
76131;SDS011;64877;50.994;13.650;2023-04-29T07:56:08;6.65;;;3.80;;
76131;SDS011;64877;50.994;13.650;2023-04-29T07:58:34;6.20;;;3.97;;
76131;SDS011;64877;50.994;13.650;2023-04-29T08:01:06;7.63;;;3.92;;
76131;SDS011;64877;50.994;13.650;2023-04-29T08:03:33;6.47;;;4.07;;
76131;SDS011;64877;50.994;13.650;2023-04-29T08:06:02;4.90;;;2.97;;
76131;SDS011;64877;50.994;13.650;2023-04-29T08:08:28;5.95;;;3.80;;
76131;SDS011;64877;50.994;13.650;2023-04-29T08:10:57;6.07;;;4.05;;
76131;SDS011;64877;50.994;13.650;2023-04-29T08:13:23;7.18;;;4.40;;
76131;SDS011;64877;50.994;13.650;2023-04-29T08:15:48;7.88;;;4.97;;
76131;SDS011;64877;50.994;13.650;2023-04-29T08:18:14;6.75;;;5.05;;
76131;SDS011;64877;50.994;13.650;2023-04-29T08:20:40;8.07;;;5.03;;
76131;SDS011;64877;50.994;13.650;2023-04-29T08:23:05;7.82;;;6.03;;
76131;SDS011;64877;50.994;13.650;2023-04-29T08:25:31;7.32;;;5.78;;
76131;SDS011;64877;50.994;13.650;2023-04-29T08:27:56;7.55;;;5.47;;
76131;SDS011;64877;50.994;13.650;2023-04-29T08:30:22;6.65;;;5.45;;
76131;SDS011;64877;50.994;13.650;2023-04-29T08:32:47;9.70;;;5.90;;
76131;SDS011;64877;50.994;13.650;2023-04-29T08:35:13;7.72;;;5.85;;
76131;SDS011;64877;50.994;13.650;2023-04-29T08:37:39;8.40;;;5.47;;
76131;SDS011;64877;50.994;13.650;2023-04-29T08:40:04;8.38;;;5.47;;
76131;SDS011;64877;50.994;13.650;2023-04-29T08:42:35;7.57;;;5.75;;
76131;SDS011;64877;50.994;13.650;2023-04-29T08:45:02;10.63;;;6.38;;
76131;SDS011;64877;50.994;13.650;2023-04-29T08:47:34;8.77;;;6.22;;
76131;SDS011;64877;50.994;13.650;2023-04-29T08:50:03;11.20;;;6.72;;
76131;SDS011;64877;50.994;13.650;2023-04-29T08:52:30;12.02;;;8.00;;
76131;SDS011;64877;50.994;13.650;2023-04-29T08:54:57;8.60;;;6.63;;
76131;SDS011;64877;50.994;13.650;2023-04-29T08:57:26;8.20;;;6.68;;
76131;SDS011;64877;50.994;13.650;2023-04-29T08:59:53;8.25;;;5.93;;
76131;SDS011;64877;50.994;13.650;2023-04-29T09:02:19;7.40;;;5.68;;
76131;SDS011;64877;50.994;13.650;2023-04-29T09:04:51;7.78;;;5.88;;
76131;SDS011;64877;50.994;13.650;2023-04-29T09:07:24;6.20;;;5.03;;
76131;SDS011;64877;50.994;13.650;2023-04-29T09:09:51;7.82;;;5.88;;
76131;SDS011;64877;50.994;13.650;2023-04-29T09:12:17;6.70;;;5.40;;
76131;SDS011;64877;50.994;13.650;2023-04-29T09:14:43;7.68;;;5.93;;
76131;SDS011;64877;50.994;13.650;2023-04-29T09:17:08;8.13;;;5.82;;
76131;SDS011;64877;50.994;13.650;2023-04-29T09:19:34;8.13;;;5.35;;
76131;SDS011;64877;50.994;13.650;2023-04-29T09:22:01;8.30;;;5.88;;
76131;SDS011;64877;50.994;13.650;2023-04-29T09:24:28;8.20;;;6.05;;
76131;SDS011;64877;50.994;13.650;2023-04-29T09:26:56;8.52;;;5.20;;
76131;SDS011;64877;50.994;13.650;2023-04-29T09:29:22;11.25;;;6.47;;
76131;SDS011;64877;50.994;13.650;2023-04-29T09:31:48;8.93;;;6.05;;
76131;SDS011;64877;50.994;13.650;2023-04-29T09:34:13;9.65;;;6.68;;
76131;SDS011;64877;50.994;13.650;2023-04-29T09:39:06;6.68;;;4.72;;
76131;SDS011;64877;50.994;13.650;2023-04-29T09:41:38;6.90;;;4.72;;
76131;SDS011;64877;50.994;13.650;2023-04-29T09:44:24;7.78;;;5.05;;
76131;SDS011;64877;50.994;13.650;2023-04-29T09:51:52;8.43;;;5.40;;
76131;SDS011;64877;50.994;13.650;2023-04-29T09:54:20;7.68;;;4.40;;
76131;SDS011;64877;50.994;13.650;2023-04-29T09:56:48;6.43;;;4.70;;
76131;SDS011;64877;50.994;13.650;2023-04-29T09:59:19;8.27;;;4.97;;
76131;SDS011;64877;50.994;13.650;2023-04-29T10:01:49;7.32;;;4.97;;
76131;SDS011;64877;50.994;13.650;2023-04-29T10:04:18;8.23;;;5.32;;
76131;SDS011;64877;50.994;13.650;2023-04-29T10:06:45;8.88;;;5.60;;
76131;SDS011;64877;50.994;13.650;2023-04-29T10:09:15;9.35;;;5.90;;
76131;SDS011;64877;50.994;13.650;2023-04-29T10:11:45;9.60;;;6.20;;
76131;SDS011;64877;50.994;13.650;2023-04-29T10:14:20;9.30;;;5.68;;
76131;SDS011;64877;50.994;13.650;2023-04-29T10:19:24;10.38;;;6.38;;
76131;SDS011;64877;50.994;13.650;2023-04-29T10:21:52;10.75;;;6.82;;
76131;SDS011;64877;50.994;13.650;2023-04-29T10:24:19;11.68;;;7.20;;
76131;SDS011;64877;50.994;13.650;2023-04-29T10:26:46;9.80;;;7.00;;
76131;SDS011;64877;50.994;13.650;2023-04-29T10:29:15;12.30;;;7.50;;
76131;SDS011;64877;50.994;13.650;2023-04-29T10:31:42;10.27;;;6.93;;
76131;SDS011;64877;50.994;13.650;2023-04-29T10:34:08;9.15;;;6.57;;
76131;SDS011;64877;50.994;13.650;2023-04-29T10:36:33;9.63;;;6.45;;
76131;SDS011;64877;50.994;13.650;2023-04-29T10:44:03;9.63;;;6.78;;
76131;SDS011;64877;50.994;13.650;2023-04-29T10:46:29;9.95;;;6.47;;
76131;SDS011;64877;50.994;13.650;2023-04-29T10:49:04;10.00;;;6.38;;
76131;SDS011;64877;50.994;13.650;2023-04-29T10:53:57;10.13;;;6.75;;
76131;SDS011;64877;50.994;13.650;2023-04-29T10:56:40;13.15;;;7.95;;
76131;SDS011;64877;50.994;13.650;2023-04-29T10:59:12;10.02;;;6.72;;
76131;SDS011;64877;50.994;13.650;2023-04-29T11:01:49;11.40;;;7.90;;
76131;SDS011;64877;50.994;13.650;2023-04-29T11:04:16;11.23;;;7.85;;
76131;SDS011;64877;50.994;13.650;2023-04-29T11:11:44;12.75;;;7.57;;
76131;SDS011;64877;50.994;13.650;2023-04-29T11:14:21;10.38;;;7.65;;
76131;SDS011;64877;50.994;13.650;2023-04-29T11:16:53;11.63;;;7.68;;
76131;SDS011;64877;50.994;13.650;2023-04-29T11:19:22;10.95;;;7.60;;
76131;SDS011;64877;50.994;13.650;2023-04-29T11:24:34;9.30;;;6.75;;
76131;SDS011;64877;50.994;13.650;2023-04-29T11:27:01;9.15;;;6.40;;
76131;SDS011;64877;50.994;13.650;2023-04-29T11:29:30;10.27;;;6.40;;
76131;SDS011;64877;50.994;13.650;2023-04-29T11:31:57;9.15;;;6.25;;
76131;SDS011;64877;50.994;13.650;2023-04-29T11:34:24;9.75;;;5.20;;
76131;SDS011;64877;50.994;13.650;2023-04-29T11:36:50;6.57;;;5.15;;
76131;SDS011;64877;50.994;13.650;2023-04-29T11:39:16;6.63;;;4.90;;
76131;SDS011;64877;50.994;13.650;2023-04-29T11:41:41;7.25;;;4.72;;
76131;SDS011;64877;50.994;13.650;2023-04-29T11:44:06;7.45;;;5.07;;
76131;SDS011;64877;50.994;13.650;2023-04-29T11:46:33;6.47;;;4.57;;
76131;SDS011;64877;50.994;13.650;2023-04-29T11:48:58;6.50;;;4.63;;
76131;SDS011;64877;50.994;13.650;2023-04-29T11:51:24;8.15;;;5.22;;
76131;SDS011;64877;50.994;13.650;2023-04-29T11:53:51;8.02;;;5.43;;
76131;SDS011;64877;50.994;13.650;2023-04-29T11:56:16;8.77;;;4.90;;
76131;SDS011;64877;50.994;13.650;2023-04-29T11:58:46;6.03;;;4.43;;
76131;SDS011;64877;50.994;13.650;2023-04-29T12:01:12;8.10;;;4.72;;
76131;SDS011;64877;50.994;13.650;2023-04-29T12:03:37;6.30;;;4.95;;
76131;SDS011;64877;50.994;13.650;2023-04-29T12:06:03;6.60;;;4.85;;
76131;SDS011;64877;50.994;13.650;2023-04-29T12:08:29;6.20;;;4.50;;
76131;SDS011;64877;50.994;13.650;2023-04-29T12:10:55;5.70;;;4.07;;
76131;SDS011;64877;50.994;13.650;2023-04-29T12:13:23;6.82;;;4.38;;
76131;SDS011;64877;50.994;13.650;2023-04-29T12:15:51;6.93;;;4.15;;
76131;SDS011;64877;50.994;13.650;2023-04-29T12:18:17;6.13;;;4.50;;
76131;SDS011;64877;50.994;13.650;2023-04-29T12:20:44;7.47;;;4.93;;
76131;SDS011;64877;50.994;13.650;2023-04-29T12:23:17;8.75;;;5.53;;
76131;SDS011;64877;50.994;13.650;2023-04-29T12:25:57;10.52;;;6.07;;
76131;SDS011;64877;50.994;13.650;2023-04-29T12:28:24;12.82;;;7.80;;
76131;SDS011;64877;50.994;13.650;2023-04-29T12:30:50;12.00;;;8.02;;
76131;SDS011;64877;50.994;13.650;2023-04-29T12:33:22;10.07;;;6.50;;
76131;SDS011;64877;50.994;13.650;2023-04-29T12:35:54;7.68;;;5.80;;
76131;SDS011;64877;50.994;13.650;2023-04-29T12:38:22;7.50;;;5.25;;
76131;SDS011;64877;50.994;13.650;2023-04-29T12:40:55;8.82;;;5.72;;
76131;SDS011;64877;50.994;13.650;2023-04-29T12:43:26;7.50;;;5.72;;
76131;SDS011;64877;50.994;13.650;2023-04-29T12:45:53;6.78;;;5.00;;
76131;SDS011;64877;50.994;13.650;2023-04-29T12:48:28;7.63;;;5.00;;
76131;SDS011;64877;50.994;13.650;2023-04-29T12:50:57;6.78;;;4.95;;
76131;SDS011;64877;50.994;13.650;2023-04-29T12:53:23;6.43;;;4.82;;
76131;SDS011;64877;50.994;13.650;2023-04-29T12:55:50;7.20;;;4.88;;
76131;SDS011;64877;50.994;13.650;2023-04-29T12:58:16;6.00;;;4.38;;
76131;SDS011;64877;50.994;13.650;2023-04-29T13:00:41;12.15;;;5.07;;
76131;SDS011;64877;50.994;13.650;2023-04-29T13:03:07;7.90;;;5.13;;
76131;SDS011;64877;50.994;13.650;2023-04-29T13:05:32;8.57;;;5.65;;
76131;SDS011;64877;50.994;13.650;2023-04-29T13:07:57;9.07;;;6.30;;
76131;SDS011;64877;50.994;13.650;2023-04-29T13:10:23;7.93;;;5.40;;
76131;SDS011;64877;50.994;13.650;2023-04-29T13:12:48;9.30;;;5.97;;
76131;SDS011;64877;50.994;13.650;2023-04-29T13:15:14;9.70;;;6.82;;
76131;SDS011;64877;50.994;13.650;2023-04-29T13:17:39;9.82;;;7.05;;
76131;SDS011;64877;50.994;13.650;2023-04-29T13:20:05;12.20;;;7.53;;
76131;SDS011;64877;50.994;13.650;2023-04-29T13:22:32;11.48;;;7.13;;
76131;SDS011;64877;50.994;13.650;2023-04-29T13:24:58;11.18;;;8.27;;
76131;SDS011;64877;50.994;13.650;2023-04-29T13:27:23;12.07;;;7.22;;
76131;SDS011;64877;50.994;13.650;2023-04-29T13:29:49;17.23;;;8.70;;
76131;SDS011;64877;50.994;13.650;2023-04-29T13:32:14;12.60;;;8.35;;
76131;SDS011;64877;50.994;13.650;2023-04-29T13:34:40;13.73;;;8.50;;
76131;SDS011;64877;50.994;13.650;2023-04-29T13:37:07;13.55;;;8.30;;
76131;SDS011;64877;50.994;13.650;2023-04-29T13:39:33;14.40;;;8.95;;
76131;SDS011;64877;50.994;13.650;2023-04-29T13:41:59;14.52;;;8.98;;
76131;SDS011;64877;50.994;13.650;2023-04-29T13:44:24;13.85;;;8.63;;
76131;SDS011;64877;50.994;13.650;2023-04-29T13:46:49;14.15;;;9.35;;
76131;SDS011;64877;50.994;13.650;2023-04-29T13:49:15;17.98;;;11.15;;
76131;SDS011;64877;50.994;13.650;2023-04-29T13:51:41;17.35;;;10.77;;
76131;SDS011;64877;50.994;13.650;2023-04-29T13:54:06;18.85;;;11.38;;
76131;SDS011;64877;50.994;13.650;2023-04-29T13:56:32;17.38;;;10.85;;
76131;SDS011;64877;50.994;13.650;2023-04-29T13:58:57;17.98;;;9.68;;
76131;SDS011;64877;50.994;13.650;2023-04-29T14:01:22;18.92;;;11.30;;
76131;SDS011;64877;50.994;13.650;2023-04-29T14:03:48;20.27;;;11.82;;
76131;SDS011;64877;50.994;13.650;2023-04-29T14:06:13;18.52;;;9.95;;
76131;SDS011;64877;50.994;13.650;2023-04-29T14:08:39;16.83;;;10.10;;
76131;SDS011;64877;50.994;13.650;2023-04-29T14:11:05;18.17;;;10.88;;
76131;SDS011;64877;50.994;13.650;2023-04-29T14:13:31;15.52;;;9.60;;
76131;SDS011;64877;50.994;13.650;2023-04-29T14:15:56;18.17;;;10.30;;
76131;SDS011;64877;50.994;13.650;2023-04-29T14:18:23;17.30;;;10.90;;
76131;SDS011;64877;50.994;13.650;2023-04-29T14:20:49;17.77;;;9.30;;
76131;SDS011;64877;50.994;13.650;2023-04-29T14:23:14;15.80;;;9.70;;
76131;SDS011;64877;50.994;13.650;2023-04-29T14:25:39;15.05;;;9.63;;
76131;SDS011;64877;50.994;13.650;2023-04-29T14:28:05;15.63;;;9.82;;
76131;SDS011;64877;50.994;13.650;2023-04-29T14:30:30;16.83;;;10.13;;
76131;SDS011;64877;50.994;13.650;2023-04-29T14:32:56;18.35;;;10.02;;
76131;SDS011;64877;50.994;13.650;2023-04-29T14:35:21;16.67;;;10.05;;
76131;SDS011;64877;50.994;13.650;2023-04-29T14:37:47;17.50;;;10.77;;
76131;SDS011;64877;50.994;13.650;2023-04-29T14:40:12;19.48;;;11.23;;
76131;SDS011;64877;50.994;13.650;2023-04-29T14:42:38;19.48;;;11.80;;
76131;SDS011;64877;50.994;13.650;2023-04-29T14:45:03;17.45;;;10.57;;
76131;SDS011;64877;50.994;13.650;2023-04-29T14:47:29;18.23;;;10.35;;
76131;SDS011;64877;50.994;13.650;2023-04-29T14:49:54;16.60;;;10.23;;
76131;SDS011;64877;50.994;13.650;2023-04-29T14:52:20;19.10;;;10.43;;
76131;SDS011;64877;50.994;13.650;2023-04-29T14:54:45;16.05;;;9.85;;
76131;SDS011;64877;50.994;13.650;2023-04-29T14:57:11;15.98;;;10.38;;
76131;SDS011;64877;50.994;13.650;2023-04-29T14:59:36;15.52;;;10.02;;
76131;SDS011;64877;50.994;13.650;2023-04-29T15:02:02;17.08;;;10.55;;